Time;durP1;ratioP1;P1;durP2;ratioP2;P2;SDS_P1;SDS_P2;PMS_P1;PMS_P2;Temp;Humidity;BMP_temperature;BMP_pressure;BME280_temperature;BME280_humidity;BME280_pressure;Samples;Min_cycle;Max_cycle;Signal;HPM_P1;HPM_P2
2021/12/22 00:01:36;;;;;;;;;55.67;41.67;;;;;0.91;69.58;102000.66;5053720;28;45453;-69
2021/12/22 00:04:02;;;;;;;;;66.00;50.00;;;;;0.93;68.79;101996.50;5053709;28;45476;-68
2021/12/22 00:06:31;;;;;;;;;55.00;42.00;;;;;1.00;69.28;102002.94;5053556;28;46655;-68
2021/12/22 00:08:58;;;;;;;;;56.00;40.00;;;;;1.00;68.49;102001.22;5054218;28;45461;-67
2021/12/22 00:11:27;;;;;;;;;52.33;40.67;;;;;0.96;68.30;101976.03;5070852;27;45569;-67
2021/12/22 00:13:54;;;;;;;;;58.00;44.67;;;;;1.09;68.40;101992.25;5073022;27;45632;-69
2021/12/22 00:16:20;;;;;;;;;61.00;45.67;;;;;1.06;67.90;101977.47;5078435;28;45926;-67
2021/12/22 00:18:46;;;;;;;;;56.00;42.67;;;;;1.11;69.60;101990.66;5056317;28;45429;-66
2021/12/22 00:21:11;;;;;;;;;62.67;46.67;;;;;1.10;68.63;101986.31;5054232;28;45348;-66
2021/12/22 00:23:38;;;;;;;;;61.67;44.67;;;;;0.81;68.89;101975.13;5057091;28;45464;-67
2021/12/22 00:26:04;;;;;;;;;57.33;44.67;;;;;0.82;69.71;101979.47;5058255;28;45521;-66
2021/12/22 00:28:32;;;;;;;;;61.00;45.00;;;;;0.83;70.00;101978.66;5062869;28;45316;-67
2021/12/22 00:30:59;;;;;;;;;56.67;43.33;;;;;0.80;69.84;101957.84;5059509;28;45272;-68
2021/12/22 00:33:27;;;;;;;;;56.67;43.00;;;;;0.87;69.51;101972.00;5060954;28;45323;-67
2021/12/22 00:35:53;;;;;;;;;50.00;41.33;;;;;1.04;69.45;101979.06;5063332;28;46700;-67
2021/12/22 00:38:21;;;;;;;;;58.00;44.00;;;;;1.11;69.09;101985.50;5058903;28;45379;-67
2021/12/22 00:40:48;;;;;;;;;55.00;44.00;;;;;1.06;68.86;101970.63;5057626;28;45456;-68
2021/12/22 00:43:16;;;;;;;;;65.67;49.33;;;;;1.13;68.45;101981.34;5058891;28;45300;-67
2021/12/22 00:45:42;;;;;;;;;54.33;41.33;;;;;1.04;68.28;101979.06;5057961;28;45439;-67
2021/12/22 00:48:10;;;;;;;;;61.00;44.33;;;;;1.00;68.37;101978.00;5059513;27;45526;-67
2021/12/22 00:50:38;;;;;;;;;55.33;42.33;;;;;0.99;68.53;101980.50;5061275;28;45571;-67
2021/12/22 00:53:05;;;;;;;;;55.33;42.67;;;;;0.98;68.86;101970.97;5058727;28;45312;-67
2021/12/22 00:55:31;;;;;;;;;61.33;45.00;;;;;1.00;68.90;101974.56;5058045;28;45811;-68
2021/12/22 00:57:57;;;;;;;;;63.67;48.67;;;;;0.97;68.18;101980.41;5073130;27;45807;-68
2021/12/22 01:00:25;;;;;;;;;61.33;45.00;;;;;0.85;69.60;101982.22;5078258;27;45338;-67
2021/12/22 01:02:51;;;;;;;;;54.67;41.00;;;;;0.92;69.05;101980.91;5063947;28;45343;-66
2021/12/22 01:05:17;;;;;;;;;37.67;35.00;;;;;0.98;69.26;101969.28;5056751;28;45331;-67
2021/12/22 01:07:46;;;;;;;;;54.00;42.67;;;;;1.00;68.76;101980.59;5073671;28;45753;-67
2021/12/22 01:10:13;;;;;;;;;66.00;46.67;;;;;0.83;69.14;101977.00;5080041;28;45401;-67
2021/12/22 01:12:39;;;;;;;;;58.67;43.00;;;;;0.76;70.46;101984.22;5074916;28;45464;-66
2021/12/22 01:15:07;;;;;;;;;44.33;40.67;;;;;0.65;69.94;101983.59;5070889;27;46140;-67
2021/12/22 01:17:40;;;;;;;;;65.67;47.00;;;;;0.62;70.36;101967.94;5079565;27;45406;-65
2021/12/22 01:20:16;;;;;;;;;61.33;45.33;;;;;0.81;69.81;101980.28;5078134;27;45397;-67
2021/12/22 01:25:12;;;;;;;;;63.00;44.67;;;;;0.71;70.54;101980.47;5076760;28;45621;-67
2021/12/22 01:27:41;;;;;;;;;58.67;45.67;;;;;0.75;70.39;101985.03;5057797;28;45359;-67
2021/12/22 01:30:14;;;;;;;;;57.00;42.67;;;;;0.70;69.78;101974.44;5076275;28;45387;-66
2021/12/22 01:32:41;;;;;;;;;57.33;44.00;;;;;0.70;69.33;101968.41;5076385;27;45579;-66
2021/12/22 01:35:11;;;;;;;;;61.33;44.33;;;;;0.81;69.92;101970.84;5076600;27;45422;-67
2021/12/22 01:37:38;;;;;;;;;56.00;38.33;;;;;0.56;70.08;101954.66;5073057;28;45651;-66
2021/12/22 01:40:05;;;;;;;;;58.67;43.67;;;;;0.52;70.68;101970.72;5075305;28;45481;-66
2021/12/22 01:42:33;;;;;;;;;58.00;44.67;;;;;0.46;70.64;101965.19;5076037;27;45456;-67
2021/12/22 01:50:37;;;;;;;;;57.67;42.00;;;;;0.65;70.83;101964.66;5044388;28;45848;-65
2021/12/22 01:53:29;;;;;;;;;59.67;44.33;;;;;0.70;70.07;101970.97;5064616;28;45754;-67
2021/12/22 01:56:22;;;;;;;;;63.00;45.67;;;;;0.62;70.28;101950.78;5060177;27;46339;-66
2021/12/22 01:58:51;;;;;;;;;55.67;41.00;;;;;0.65;70.20;101954.34;5074553;28;45850;-69
2021/12/22 02:01:17;;;;;;;;;63.33;45.00;;;;;0.68;70.75;101959.69;5065075;27;45498;-65
2021/12/22 02:03:45;;;;;;;;;61.67;46.33;;;;;0.65;70.87;101965.53;5057050;28;45403;-67
2021/12/22 02:06:11;;;;;;;;;59.00;45.33;;;;;0.45;71.21;101946.25;5055240;28;45764;-66
2021/12/22 02:08:39;;;;;;;;;64.33;46.00;;;;;0.58;71.07;101964.25;5055623;28;46311;-66
2021/12/22 02:11:06;;;;;;;;;69.67;50.33;;;;;0.55;71.13;101969.25;5056618;28;45462;-66
2021/12/22 02:13:36;;;;;;;;;73.00;51.00;;;;;0.38;72.00;101938.91;5060173;28;45337;-67
2021/12/22 02:16:07;;;;;;;;;63.00;46.00;;;;;0.23;71.47;101920.81;5059619;28;46405;-67
2021/12/22 02:18:35;;;;;;;;;57.33;43.67;;;;;0.40;71.69;101945.97;5055976;28;45600;-67
2021/12/22 02:21:02;;;;;;;;;68.00;49.00;;;;;0.66;71.01;101963.84;5054955;28;45405;-67
2021/12/22 02:23:27;;;;;;;;;60.33;45.67;;;;;0.65;70.84;101960.38;5055610;28;45320;-66
2021/12/22 02:26:04;;;;;;;;;63.67;44.67;;;;;0.54;71.60;101941.66;5056553;28;45859;-67
2021/12/22 02:28:33;;;;;;;;;61.67;44.67;;;;;0.51;71.53;101949.22;5064605;27;45637;-68
2021/12/22 02:30:59;;;;;;;;;61.33;47.33;;;;;0.63;71.14;101962.84;5076298;28;45439;-67
2021/12/22 02:33:34;;;;;;;;;64.00;43.67;;;;;0.56;70.94;101929.75;5077967;28;45243;-67
2021/12/22 02:38:29;;;;;;;;;64.33;49.00;;;;;0.87;69.97;101964.28;5074941;28;45485;-66
2021/12/22 02:40:55;;;;;;;;;61.67;47.67;;;;;0.86;70.59;101958.22;5078496;28;45723;-67
2021/12/22 02:43:23;;;;;;;;;62.00;47.00;;;;;0.84;69.90;101936.59;5080096;27;45586;-66
2021/12/22 02:45:51;;;;;;;;;60.67;45.00;;;;;0.76;70.08;101925.84;5077500;28;46006;-67
2021/12/22 02:48:18;;;;;;;;;63.67;48.67;;;;;0.88;69.83;101948.91;5057234;28;45499;-65
2021/12/22 02:50:44;;;;;;;;;61.00;46.33;;;;;0.78;69.16;101946.53;5074962;28;45561;-66
2021/12/22 02:53:13;;;;;;;;;69.33;50.00;;;;;0.80;69.96;101952.69;5075907;28;45524;-66
2021/12/22 02:55:46;;;;;;;;;66.33;44.67;;;;;0.68;70.08;101939.94;5074717;28;45998;-66
2021/12/22 02:58:22;;;;;;;;;65.67;45.00;;;;;0.78;70.14;101947.44;5075487;28;45367;-67
2021/12/22 03:01:07;;;;;;;;;60.67;44.67;;;;;0.73;70.37;101933.34;5079128;28;45280;-66
2021/12/22 03:06:11;;;;;;;;;57.33;46.33;;;;;0.73;70.53;101927.31;5074486;27;46089;-67
2021/12/22 03:08:37;;;;;;;;;64.00;47.33;;;;;0.76;69.74;101948.13;5077826;28;45572;-67
2021/12/22 03:11:03;;;;;;;;;68.00;48.00;;;;;0.55;69.54;101943.47;5081072;27;45459;-67
2021/12/22 03:13:31;;;;;;;;;55.67;41.00;;;;;0.45;70.54;101960.81;5083287;28;45473;-66
2021/12/22 03:15:56;;;;;;;;;62.33;45.00;;;;;0.39;70.45;101951.91;5082973;27;46180;-67
2021/12/22 03:18:23;;;;;;;;;68.33;50.00;;;;;0.28;70.73;101934.88;5083015;28;45374;-67
2021/12/22 03:20:56;;;;;;;;;70.00;51.33;;;;;0.39;71.47;101946.75;5061529;28;45572;-65
2021/12/22 03:23:22;;;;;;;;;58.33;42.67;;;;;0.31;70.94;101949.63;5077057;27;45568;-68
2021/12/22 03:25:47;;;;;;;;;61.33;47.00;;;;;0.29;71.09;101953.84;5075451;28;45530;-66
2021/12/22 03:28:13;;;;;;;;;58.33;47.00;;;;;0.14;70.79;101925.38;5074463;27;45421;-65
2021/12/22 03:30:39;;;;;;;;;67.67;46.00;;;;;0.20;71.25;101941.25;5074326;28;45485;-67
2021/12/22 03:33:05;;;;;;;;;57.67;46.00;;;;;0.23;71.22;101959.47;5074877;28;45806;-66
2021/12/22 03:35:34;;;;;;;;;68.67;48.00;;;;;0.27;71.62;101945.13;5074012;28;45652;-66
2021/12/22 03:38:00;;;;;;;;;62.67;45.00;;;;;0.45;70.57;101937.63;5059528;28;45460;-65
2021/12/22 03:40:27;;;;;;;;;63.33;46.00;;;;;0.54;71.01;101933.91;5077696;28;45461;-67
2021/12/22 03:42:53;;;;;;;;;62.67;47.00;;;;;0.52;70.84;101932.03;5074867;28;45536;-67
2021/12/22 03:45:19;;;;;;;;;56.33;41.67;;;;;0.47;70.83;101938.59;5074212;28;46073;-67
2021/12/22 03:47:45;;;;;;;;;66.33;49.33;;;;;0.46;71.11;101934.25;5076617;28;45589;-68
2021/12/22 03:50:12;;;;;;;;;67.00;48.00;;;;;0.51;70.35;101933.75;5075331;28;45566;-67
2021/12/22 03:52:37;;;;;;;;;65.67;44.67;;;;;0.55;70.70;101930.56;5074248;28;45660;-68
2021/12/22 03:55:05;;;;;;;;;62.67;47.33;;;;;0.56;70.03;101936.59;5074372;28;45389;-68
2021/12/22 03:57:31;;;;;;;;;60.00;44.33;;;;;0.66;70.19;101940.63;5074236;28;45375;-68
2021/12/22 03:59:58;;;;;;;;;55.33;44.33;;;;;0.72;69.41;101931.59;5074327;28;45524;-66
2021/12/22 04:02:25;;;;;;;;;61.33;44.67;;;;;0.70;70.19;101938.34;5076248;28;45423;-66
2021/12/22 04:04:51;;;;;;;;;58.33;43.00;;;;;0.45;70.31;101911.84;5081202;27;45996;-67
2021/12/22 04:07:19;;;;;;;;;62.33;44.00;;;;;0.47;69.96;101900.84;5079833;27;45491;-67
2021/12/22 04:09:46;;;;;;;;;62.00;45.33;;;;;0.72;70.56;101926.44;5078306;28;45962;-66
2021/12/22 04:12:11;;;;;;;;;65.33;46.67;;;;;0.76;69.78;101927.50;5078891;28;45484;-65
2021/12/22 04:14:37;;;;;;;;;58.67;44.67;;;;;0.60;70.25;101894.75;5081905;28;45409;-65
2021/12/22 04:17:03;;;;;;;;;59.00;42.00;;;;;0.73;69.48;101922.16;5081699;28;45570;-66
2021/12/22 04:19:29;;;;;;;;;63.67;43.00;;;;;0.76;69.32;101915.53;5077997;27;45538;-66
2021/12/22 04:21:54;;;;;;;;;58.00;43.00;;;;;0.86;69.43;101905.75;5077617;28;45452;-66
2021/12/22 04:24:22;;;;;;;;;57.67;45.00;;;;;0.93;69.23;101906.22;5076114;27;45381;-67
2021/12/22 04:26:48;;;;;;;;;51.00;37.33;;;;;0.98;69.72;101901.31;5077463;27;45494;-67
2021/12/22 04:29:13;;;;;;;;;63.33;45.67;;;;;1.04;68.47;101909.41;5077944;27;45362;-66
2021/12/22 04:31:40;;;;;;;;;58.33;43.33;;;;;0.97;69.11;101895.28;5077752;28;45464;-66
2021/12/22 04:34:08;;;;;;;;;64.00;46.33;;;;;1.08;68.94;101919.13;5080576;28;45558;-66
2021/12/22 04:36:38;;;;;;;;;61.67;46.00;;;;;1.08;68.98;101928.56;5077116;27;45791;-66
2021/12/22 04:39:06;;;;;;;;;57.67;43.33;;;;;1.06;68.54;101919.03;5077191;27;45496;-67
2021/12/22 04:41:32;;;;;;;;;61.00;45.33;;;;;1.10;68.85;101934.72;5076965;27;45413;-67
2021/12/22 04:43:58;;;;;;;;;58.67;42.67;;;;;1.05;69.04;101927.56;5058596;28;47515;-67
2021/12/22 04:46:24;;;;;;;;;59.00;44.00;;;;;0.81;69.42;101937.31;5080025;28;45369;-66
2021/12/22 04:48:50;;;;;;;;;63.33;47.00;;;;;0.79;68.94;101938.03;5076782;27;45763;-67
2021/12/22 04:51:28;;;;;;;;;62.67;46.67;;;;;0.81;69.60;101929.56;5077048;28;45359;-66
2021/12/22 04:54:18;;;;;;;;;61.00;42.67;;;;;0.68;70.40;101942.50;5076972;28;45476;-66
2021/12/22 04:56:42;;;;;;;;;64.33;44.67;;;;;0.60;69.98;101941.16;5076365;27;45409;-66
2021/12/22 04:59:08;;;;;;;;;57.00;43.33;;;;;0.69;70.41;101934.00;5076544;28;45502;-66
2021/12/22 05:01:34;;;;;;;;;63.00;45.00;;;;;0.62;69.32;101929.25;5077147;28;45490;-67
2021/12/22 05:03:59;;;;;;;;;58.33;47.00;;;;;0.74;69.51;101945.47;5077906;28;46156;-67
2021/12/22 05:06:25;;;;;;;;;61.00;43.67;;;;;0.66;69.53;101940.63;5078842;28;45508;-66
2021/12/22 05:08:51;;;;;;;;;58.33;46.00;;;;;0.62;69.79;101929.25;5076281;28;45414;-66
2021/12/22 05:11:17;;;;;;;;;61.33;47.33;;;;;0.33;69.55;101923.19;5079689;27;45465;-65
2021/12/22 05:13:43;;;;;;;;;55.33;41.67;;;;;0.32;70.19;101907.63;5076358;27;45450;-66
2021/12/22 05:16:16;;;;;;;;;63.00;44.67;;;;;0.42;69.27;101923.75;5076593;27;45404;-66
2021/12/22 05:18:55;;;;;;;;;62.00;46.33;;;;;0.29;69.41;101898.03;5077121;27;45790;-66
2021/12/22 05:21:24;;;;;;;;;54.33;41.67;;;;;0.49;69.92;101908.66;5060348;28;45598;-67
2021/12/22 05:23:50;;;;;;;;;51.67;39.00;;;;;0.53;68.67;101902.91;5076390;27;45721;-67
2021/12/22 05:26:16;;;;;;;;;52.00;39.67;;;;;0.65;69.30;101913.09;5076308;28;45541;-67
2021/12/22 05:28:42;;;;;;;;;54.33;42.00;;;;;0.75;68.39;101908.56;5079347;28;45335;-66
2021/12/22 05:31:07;;;;;;;;;54.33;39.33;;;;;0.82;67.29;101907.25;5076679;28;45492;-65
2021/12/22 05:33:33;;;;;;;;;50.67;38.33;;;;;0.82;67.17;101913.28;5075848;27;46353;-66
2021/12/22 05:35:58;;;;;;;;;51.67;39.67;;;;;0.84;67.79;101906.53;5076121;28;45459;-66
2021/12/22 05:38:24;;;;;;;;;61.00;44.67;;;;;0.88;68.34;101906.72;5075792;28;45388;-67
2021/12/22 05:40:49;;;;;;;;;52.33;38.00;;;;;0.79;68.24;101913.13;5076166;27;45456;-65
2021/12/22 05:43:15;;;;;;;;;51.33;38.33;;;;;0.71;67.42;101913.44;5076288;28;45508;-65
2021/12/22 05:45:41;;;;;;;;;56.00;41.00;;;;;0.78;67.72;101924.25;5077209;28;45490;-66
2021/12/22 05:48:06;;;;;;;;;60.33;41.00;;;;;0.78;67.72;101913.94;5080427;28;45300;-65
2021/12/22 05:50:32;;;;;;;;;53.67;40.00;;;;;0.74;67.66;101911.94;5082160;27;45485;-66
2021/12/22 05:52:58;;;;;;;;;50.00;38.33;;;;;0.69;67.90;101930.50;5079258;28;45589;-66
2021/12/22 05:55:23;;;;;;;;;55.00;40.00;;;;;0.59;67.80;101926.47;5078021;27;45352;-67
2021/12/22 05:57:49;;;;;;;;;56.67;42.00;;;;;0.48;68.90;101919.78;5080081;27;45686;-65
2021/12/22 06:00:15;;;;;;;;;52.33;37.33;;;;;0.22;69.40;101926.78;5079728;28;45430;-66
2021/12/22 06:02:41;;;;;;;;;60.67;46.33;;;;;0.20;69.39;101921.53;5078280;27;46277;-66
2021/12/22 06:05:08;;;;;;;;;60.33;44.33;;;;;0.25;68.93;101936.38;5060647;28;45819;-65
2021/12/22 06:07:33;;;;;;;;;59.33;41.00;;;;;0.11;69.84;101927.78;5079135;28;45431;-67
2021/12/22 06:09:59;;;;;;;;;58.00;39.67;;;;;0.14;69.10;101934.03;5080103;28;45398;-66
2021/12/22 06:12:24;;;;;;;;;63.67;47.33;;;;;-0.04;70.39;101933.75;5076568;28;45410;-67
2021/12/22 06:14:50;;;;;;;;;56.00;42.67;;;;;0.09;69.51;101940.56;5057008;28;45512;-67
2021/12/22 06:17:16;;;;;;;;;56.33;41.00;;;;;0.14;70.11;101935.69;5077276;27;45446;-66
2021/12/22 06:19:41;;;;;;;;;61.67;46.33;;;;;0.21;69.81;101919.81;5079979;28;45299;-66
2021/12/22 06:22:07;;;;;;;;;61.00;47.33;;;;;0.13;70.01;101939.09;5076128;27;45597;-66
2021/12/22 06:24:32;;;;;;;;;64.00;46.67;;;;;0.08;70.34;101923.31;5074595;27;45449;-67
2021/12/22 06:26:58;;;;;;;;;59.33;43.33;;;;;0.03;70.52;101932.47;5061068;28;45559;-66
2021/12/22 06:29:24;;;;;;;;;65.67;47.33;;;;;-0.06;71.40;101919.00;5078512;27;45449;-67
2021/12/22 06:31:51;;;;;;;;;58.67;44.00;;;;;-0.01;70.99;101918.47;5057582;28;46807;-66
2021/12/22 06:34:16;;;;;;;;;60.33;45.00;;;;;0.08;70.24;101912.13;5077965;28;45441;-66
2021/12/22 06:36:42;;;;;;;;;60.33;45.00;;;;;0.17;68.93;101921.34;5076764;27;45404;-66
2021/12/22 06:39:10;;;;;;;;;57.33;44.00;;;;;0.07;69.09;101928.38;5075405;27;45359;-66
2021/12/22 06:41:36;;;;;;;;;58.33;37.67;;;;;0.14;69.52;101938.28;5073846;28;45476;-66
2021/12/22 06:44:05;;;;;;;;;59.33;46.67;;;;;0.08;69.69;101928.47;5076062;27;45351;-65
2021/12/22 06:46:31;;;;;;;;;63.33;48.33;;;;;0.08;70.72;101930.19;5077760;28;45406;-66
2021/12/22 06:48:56;;;;;;;;;64.00;48.00;;;;;-0.07;70.16;101920.69;5075621;28;45471;-66
2021/12/22 06:51:22;;;;;;;;;60.00;46.33;;;;;-0.12;70.32;101937.53;5075051;28;46047;-67
2021/12/22 06:53:47;;;;;;;;;62.67;45.33;;;;;-0.06;70.91;101942.16;5078548;27;45484;-66
2021/12/22 06:56:13;;;;;;;;;56.00;42.00;;;;;-0.03;70.34;101948.38;5075349;27;45510;-66
2021/12/22 06:58:38;;;;;;;;;61.33;45.33;;;;;0.04;69.96;101952.25;5075247;28;45365;-66
2021/12/22 07:01:04;;;;;;;;;65.00;47.67;;;;;-0.02;70.50;101944.16;5074543;27;45953;-67
2021/12/22 07:03:30;;;;;;;;;67.00;46.67;;;;;-0.04;69.89;101931.16;5056107;28;45862;-67
2021/12/22 07:05:55;;;;;;;;;59.33;41.33;;;;;-0.01;69.95;101940.78;5074295;28;45615;-66
2021/12/22 07:08:21;;;;;;;;;66.67;47.00;;;;;0.12;69.64;101939.84;5078206;28;45317;-65
2021/12/22 07:10:47;;;;;;;;;63.33;46.33;;;;;0.07;69.79;101930.94;5077814;27;45494;-66
2021/12/22 07:13:14;;;;;;;;;65.33;46.67;;;;;0.15;70.23;101940.06;5074973;28;45913;-66
2021/12/22 07:15:40;;;;;;;;;59.00;46.00;;;;;0.19;69.97;101935.22;5056573;28;45495;-66
2021/12/22 07:18:10;;;;;;;;;65.67;48.33;;;;;0.25;69.43;101920.94;5077224;28;45741;-66
2021/12/22 07:20:36;;;;;;;;;62.33;48.33;;;;;0.25;69.30;101929.53;5076369;28;46164;-66
2021/12/22 07:23:01;;;;;;;;;65.33;47.33;;;;;0.20;69.24;101924.09;5075050;28;45439;-64
2021/12/22 07:25:28;;;;;;;;;66.33;47.67;;;;;0.17;69.22;101929.06;5074517;27;45275;-66
2021/12/22 07:27:53;;;;;;;;;63.00;47.33;;;;;0.10;69.78;101934.63;5075268;28;45536;-66
2021/12/22 07:30:19;;;;;;;;;57.33;44.67;;;;;0.15;69.00;101930.66;5074664;27;45768;-67
2021/12/22 07:32:44;;;;;;;;;64.67;46.33;;;;;0.02;69.61;101914.31;5075453;28;45756;-67
2021/12/22 07:35:18;;;;;;;;;66.33;45.67;;;;;0.16;68.99;101934.09;5078461;28;45457;-66
2021/12/22 07:37:57;;;;;;;;;57.00;43.67;;;;;0.13;68.55;101929.66;5074917;28;45582;-66
2021/12/22 07:40:23;;;;;;;;;63.67;47.67;;;;;0.09;69.23;101937.09;5073697;27;46329;-66
2021/12/22 07:42:49;;;;;;;;;65.00;45.67;;;;;0.01;70.16;101933.16;5073992;28;45425;-66
2021/12/22 07:45:14;;;;;;;;;64.00;47.00;;;;;0.05;70.15;101933.44;5074639;28;45561;-66
2021/12/22 07:47:41;;;;;;;;;61.33;46.00;;;;;0.17;70.24;101928.19;5068051;28;45382;-67
2021/12/22 07:50:08;;;;;;;;;62.33;47.00;;;;;0.22;69.78;101938.78;5055726;27;46096;-65
2021/12/22 07:52:33;;;;;;;;;57.00;44.00;;;;;0.13;70.50;101927.09;5061881;28;45488;-66
2021/12/22 07:55:01;;;;;;;;;62.00;49.33;;;;;0.17;70.30;101934.22;5073921;28;45522;-67
2021/12/22 07:57:26;;;;;;;;;66.00;47.00;;;;;0.17;69.64;101933.34;5076158;27;45847;-67
2021/12/22 07:59:52;;;;;;;;;65.00;46.00;;;;;0.18;70.16;101927.38;5077926;28;46224;-66
2021/12/22 08:02:18;;;;;;;;;69.33;45.00;;;;;0.36;69.77;101933.69;5078451;28;45420;-67
2021/12/22 08:04:43;;;;;;;;;66.33;47.00;;;;;0.35;69.56;101942.19;5078325;27;45490;-68
2021/12/22 08:07:09;;;;;;;;;69.67;47.00;;;;;0.29;69.60;101938.38;5077708;27;45311;-67
2021/12/22 08:09:36;;;;;;;;;61.00;43.00;;;;;0.40;69.65;101943.41;5074164;27;45792;-66
2021/12/22 08:12:05;;;;;;;;;71.67;51.33;;;;;0.27;69.00;101932.22;5075805;27;45485;-66
2021/12/22 08:14:36;;;;;;;;;66.00;47.67;;;;;0.31;69.56;101958.28;5075375;27;45407;-66
2021/12/22 08:17:03;;;;;;;;;57.00;43.33;;;;;0.24;69.48;101945.81;5074554;28;45448;-66
2021/12/22 08:19:28;;;;;;;;;56.33;41.33;;;;;0.15;70.19;101943.53;5074384;27;45415;-66
2021/12/22 08:21:55;;;;;;;;;71.00;48.67;;;;;0.30;70.22;101935.88;5072314;27;45420;-65
2021/12/22 08:24:21;;;;;;;;;61.67;45.33;;;;;0.25;70.14;101921.81;5074028;28;45370;-67
2021/12/22 08:26:47;;;;;;;;;63.33;47.33;;;;;0.18;69.73;101904.19;5058545;28;45361;-67
2021/12/22 08:29:13;;;;;;;;;68.00;48.67;;;;;0.40;70.14;101930.53;5078109;28;46079;-66
2021/12/22 08:31:39;;;;;;;;;64.67;46.00;;;;;0.38;69.16;101915.72;5077549;28;45434;-67
2021/12/22 08:34:06;;;;;;;;;64.67;47.67;;;;;0.50;69.79;101920.75;5075822;28;45484;-67
2021/12/22 08:39:16;;;;;;;;;67.33;51.67;;;;;0.44;69.36;101923.84;5074786;27;45780;-67
2021/12/22 08:41:47;;;;;;;;;64.00;46.00;;;;;0.35;69.45;101933.59;5074830;28;45420;-67
2021/12/22 08:44:14;;;;;;;;;65.33;46.67;;;;;0.29;69.96;101925.50;5080044;27;45314;-67
2021/12/22 08:46:43;;;;;;;;;63.67;46.33;;;;;0.37;69.14;101925.16;5078557;28;45588;-67
2021/12/22 08:49:10;;;;;;;;;63.67;47.33;;;;;0.39;69.35;101922.69;5081880;28;45532;-67
2021/12/22 08:51:36;;;;;;;;;52.00;39.00;;;;;0.40;69.12;101922.78;5084589;27;45583;-67
2021/12/22 08:54:02;;;;;;;;;64.33;51.00;;;;;0.34;70.35;101921.50;5081618;27;45389;-66
2021/12/22 08:56:30;;;;;;;;;65.00;49.00;;;;;0.25;70.07;101923.50;5081117;27;45506;-66
2021/12/22 08:58:57;;;;;;;;;64.33;47.33;;;;;0.21;71.19;101917.25;5079873;27;45524;-66
2021/12/22 09:01:26;;;;;;;;;61.33;47.67;;;;;0.22;70.55;101907.84;5077455;27;45645;-67
2021/12/22 09:03:54;;;;;;;;;66.00;50.33;;;;;0.25;69.86;101908.94;5077911;27;45463;-68
2021/12/22 09:06:20;;;;;;;;;62.67;47.00;;;;;0.25;70.13;101915.78;5073076;27;45350;-65
2021/12/22 09:08:46;;;;;;;;;59.33;44.67;;;;;0.28;69.63;101908.22;5077094;27;45469;-66
2021/12/22 09:11:14;;;;;;;;;60.00;45.00;;;;;0.35;69.49;101906.13;5074489;27;45452;-67
2021/12/22 09:13:40;;;;;;;;;61.00;47.67;;;;;0.38;69.58;101913.16;5071359;28;45280;-66
2021/12/22 09:16:09;;;;;;;;;56.00;38.33;;;;;0.37;69.75;101909.69;5060367;28;45339;-67
2021/12/22 09:18:35;;;;;;;;;61.67;45.33;;;;;0.29;69.65;101912.59;5078812;28;45536;-66
2021/12/22 09:21:01;;;;;;;;;60.33;45.67;;;;;0.27;69.43;101916.75;5082657;27;45342;-68
2021/12/22 09:23:28;;;;;;;;;68.00;46.00;;;;;0.06;70.37;101901.72;5059269;28;45311;-66
2021/12/22 09:25:54;;;;;;;;;67.00;48.67;;;;;0.05;70.73;101906.78;5059378;28;45457;-66
2021/12/22 09:28:20;;;;;;;;;56.00;40.67;;;;;0.18;70.52;101912.81;5071981;28;46647;-66
2021/12/22 09:30:46;;;;;;;;;64.00;47.00;;;;;0.27;70.31;101907.34;5055986;28;45509;-67
2021/12/22 09:33:16;;;;;;;;;63.00;47.00;;;;;0.35;69.82;101911.28;5038001;28;45577;-66
2021/12/22 09:35:44;;;;;;;;;60.67;43.00;;;;;0.45;69.57;101905.00;5076226;28;45341;-67
2021/12/22 09:38:10;;;;;;;;;65.00;47.33;;;;;0.50;69.55;101895.88;5079765;27;46205;-67
2021/12/22 09:40:37;;;;;;;;;64.33;46.00;;;;;0.59;68.61;101911.00;5075840;28;45438;-65
2021/12/22 09:43:05;;;;;;;;;63.33;45.67;;;;;0.58;69.38;101902.38;5075739;28;45912;-65
2021/12/22 09:45:31;;;;;;;;;66.00;49.33;;;;;0.55;68.70;101904.78;5077154;28;45376;-65
2021/12/22 09:52:16;;;;;;;;;60.33;46.00;;;;;0.55;68.88;101911.63;5053524;27;45517;-66
2021/12/22 09:53:40;;;;;;;;;61.00;47.00;;;;;0.44;69.25;101912.66;5068421;28;45600;-66
2021/12/22 09:56:06;;;;;;;;;57.67;46.33;;;;;0.54;68.94;101928.75;5076018;27;45367;-66
2021/12/22 09:58:36;;;;;;;;;68.67;48.67;;;;;0.38;69.31;101885.72;5075244;27;45393;-66
2021/12/22 10:01:02;;;;;;;;;64.67;47.00;;;;;0.61;69.32;101924.88;5075400;28;45369;-66
2021/12/22 10:03:28;;;;;;;;;55.00;42.67;;;;;0.68;69.78;101932.19;5066438;28;45426;-65
2021/12/22 10:05:53;;;;;;;;;63.67;47.00;;;;;0.68;68.67;101918.41;5058737;28;45478;-66
2021/12/22 10:08:22;;;;;;;;;62.33;44.67;;;;;0.65;68.83;101921.72;5055218;28;45777;-67
2021/12/22 10:11:08;;;;;;;;;64.33;45.67;;;;;0.70;68.31;101901.34;5056855;28;45528;-66
2021/12/22 10:13:35;;;;;;;;;63.67;47.00;;;;;0.89;68.75;101916.25;5072521;28;45418;-66
2021/12/22 10:16:20;;;;;;;;;59.33;45.00;;;;;0.93;68.75;101920.81;5077888;27;45307;-67
2021/12/22 10:18:47;;;;;;;;;69.33;48.33;;;;;0.92;67.71;101914.72;5075123;28;45673;-66
2021/12/22 10:21:21;;;;;;;;;68.33;50.33;;;;;0.82;68.41;101918.44;5075020;28;45483;-66
2021/12/22 10:23:51;;;;;;;;;67.67;48.00;;;;;0.78;68.44;101919.09;5075581;28;45474;-67
2021/12/22 10:26:23;;;;;;;;;64.67;46.33;;;;;0.84;68.35;101926.28;5070494;28;45533;-67
2021/12/22 10:28:50;;;;;;;;;61.33;44.33;;;;;0.93;67.74;101920.81;5063258;28;46313;-70
2021/12/22 10:31:19;;;;;;;;;62.00;46.33;;;;;0.92;68.02;101912.16;5054882;28;45450;-67
2021/12/22 10:33:46;;;;;;;;;69.67;52.33;;;;;1.01;67.76;101914.41;5036713;28;45413;-66
2021/12/22 10:36:18;;;;;;;;;60.33;45.33;;;;;0.95;67.39;101904.63;5067897;27;45393;-67
2021/12/22 10:39:00;;;;;;;;;70.00;47.33;;;;;0.94;67.71;101905.41;5060977;27;46208;-66
2021/12/22 10:41:31;;;;;;;;;65.33;49.00;;;;;0.95;68.01;101904.63;5041312;28;45414;-67
2021/12/22 10:43:58;;;;;;;;;71.00;51.00;;;;;0.75;67.88;101898.25;5076786;27;45608;-66
2021/12/22 10:46:32;;;;;;;;;68.00;47.00;;;;;0.85;67.86;101894.53;5076648;28;45592;-65
2021/12/22 10:49:15;;;;;;;;;64.33;48.00;;;;;0.86;67.36;101901.50;5072608;28;45347;-66
2021/12/22 10:51:43;;;;;;;;;78.33;54.33;;;;;0.86;67.93;101901.50;5074439;27;45502;-66
2021/12/22 10:54:12;;;;;;;;;69.33;48.33;;;;;0.83;68.25;101891.88;5074661;28;45454;-66
2021/12/22 10:56:45;;;;;;;;;67.67;51.00;;;;;0.84;67.09;101857.53;5075786;28;45398;-67
2021/12/22 10:59:16;;;;;;;;;64.00;49.00;;;;;0.94;67.63;101856.38;5070877;28;46187;-65
2021/12/22 11:02:05;;;;;;;;;74.67;52.33;;;;;0.97;67.78;101855.66;5073122;28;45483;-67
2021/12/22 11:04:33;;;;;;;;;70.67;51.00;;;;;0.99;67.40;101847.22;5072050;28;45365;-67
2021/12/22 11:07:13;;;;;;;;;66.67;50.00;;;;;1.06;67.60;101866.53;5070803;28;45558;-65
2021/12/22 11:09:39;;;;;;;;;63.67;49.00;;;;;1.00;66.78;101842.97;5075554;28;45441;-67
2021/12/22 11:12:06;;;;;;;;;66.00;49.00;;;;;1.05;67.45;101862.19;5076274;28;45657;-67
2021/12/22 11:14:38;;;;;;;;;66.00;46.67;;;;;1.09;67.37;101851.22;5070719;28;45461;-65
2021/12/22 11:17:14;;;;;;;;;73.33;52.67;;;;;1.14;67.69;101852.41;5074154;28;45452;-65
2021/12/22 11:20:03;;;;;;;;;64.67;49.00;;;;;1.15;66.41;101858.44;5073698;28;46242;-67
2021/12/22 11:22:57;;;;;;;;;70.00;51.33;;;;;1.05;66.39;101844.13;5073802;28;45476;-68
2021/12/22 11:25:24;;;;;;;;;69.33;47.00;;;;;0.91;66.79;101829.53;5055384;28;45523;-68
2021/12/22 11:27:50;;;;;;;;;69.67;47.67;;;;;0.92;66.72;101819.28;5076346;28;45579;-67
2021/12/22 11:30:17;;;;;;;;;62.00;46.33;;;;;0.93;66.25;101815.03;5055960;28;47568;-67
2021/12/22 11:32:44;;;;;;;;;60.67;46.00;;;;;1.10;66.97;101834.06;5076354;28;45639;-66
2021/12/22 11:35:12;;;;;;;;;61.67;48.00;;;;;1.12;66.17;101825.63;5076461;27;45421;-66
2021/12/22 11:37:38;;;;;;;;;60.33;43.00;;;;;0.98;66.67;101823.94;5077194;28;45579;-68
2021/12/22 11:40:08;;;;;;;;;64.00;48.00;;;;;0.84;66.96;101826.59;5078522;28;45604;-67